createdAt,value
2022-07-28T00:01:46.722Z,93.90
2022-07-28T00:03:53.996Z,93.40
2022-07-28T00:06:01.379Z,92.80
2022-07-28T00:08:08.920Z,92.40
2022-07-28T00:10:16.573Z,92.20
2022-07-28T00:12:23.858Z,92.20
2022-07-28T00:14:31.240Z,92.10
2022-07-28T00:16:38.270Z,92.00
2022-07-28T00:18:47.451Z,91.90
2022-07-28T00:20:54.373Z,91.70
2022-07-28T00:23:01.809Z,91.50
2022-07-28T00:25:09.443Z,91.20
2022-07-28T00:27:19.386Z,91.10
2022-07-28T00:29:49.807Z,91.40
2022-07-28T00:31:53.945Z,91.50
2022-07-28T00:34:02.908Z,91.30
2022-07-28T00:36:11.805Z,91.20
2022-07-28T00:38:19.319Z,90.90
2022-07-28T00:40:54.501Z,90.80
2022-07-28T00:43:01.531Z,90.70
2022-07-28T00:45:09.580Z,90.60
2022-07-28T00:47:17.804Z,90.60
2022-07-28T00:49:26.557Z,90.60
2022-07-28T00:51:34.412Z,90.60
2022-07-28T00:53:42.304Z,90.60
2022-07-28T00:56:02.707Z,90.30
2022-07-28T00:58:14.224Z,90.00
2022-07-28T01:00:21.735Z,89.80
2022-07-28T01:02:29.147Z,89.70
2022-07-28T01:04:38.278Z,89.70
2022-07-28T01:07:11.475Z,89.70
2022-07-28T01:09:34.727Z,89.80
2022-07-28T01:11:52.050Z,89.40
2022-07-28T01:14:11.830Z,89.20
2022-07-28T01:16:22.809Z,88.90
2022-07-28T01:18:36.530Z,88.70
2022-07-28T01:20:48.895Z,88.60
2022-07-28T01:23:10.716Z,88.50
2022-07-28T01:25:26.810Z,88.50
2022-07-28T01:27:54.321Z,88.30
2022-07-28T01:30:11.729Z,88.00
2022-07-28T01:32:24.041Z,87.60
2022-07-28T01:34:35.511Z,87.50
2022-07-28T01:36:48.530Z,87.50
2022-07-28T01:38:56.943Z,87.50
2022-07-28T01:41:05.914Z,87.40
2022-07-28T01:43:18.126Z,87.10
2022-07-28T01:45:26.729Z,86.90
2022-07-28T01:47:36.834Z,86.50
2022-07-28T01:49:47.342Z,86.20
2022-07-28T01:51:57.233Z,86.10
2022-07-28T01:54:05.659Z,85.90
2022-07-28T01:56:14.772Z,85.80
2022-07-28T01:58:23.501Z,85.60
2022-07-28T02:00:32.544Z,85.50
2022-07-28T02:02:42.204Z,85.10
2022-07-28T02:04:51.602Z,84.90
2022-07-28T02:07:00.317Z,85.10
2022-07-28T02:09:09.443Z,85.00
2022-07-28T02:11:33.051Z,84.90
2022-07-28T02:13:42.950Z,85.00
2022-07-28T02:15:50.135Z,84.40
2022-07-28T02:18:00.287Z,84.00
2022-07-28T02:20:10.684Z,84.00
2022-07-28T02:22:19.487Z,83.70
2022-07-28T02:24:29.349Z,83.10
2022-07-28T02:26:39.859Z,82.70
2022-07-28T02:28:48.124Z,82.30
2022-07-28T02:31:01.171Z,82.10
2022-07-28T02:33:15.543Z,82.20
2022-07-28T02:35:37.522Z,82.10
2022-07-28T02:37:50.874Z,81.70
2022-07-28T02:40:00.831Z,81.30
2022-07-28T02:42:12.727Z,80.60
2022-07-28T02:44:25.081Z,80.40
2022-07-28T02:46:39.323Z,80.20
2022-07-28T02:48:52.825Z,79.90
2022-07-28T02:51:01.478Z,79.80
2022-07-28T02:53:15.166Z,79.70
2022-07-28T02:55:23.362Z,79.30
2022-07-28T02:57:31.466Z,79.10
2022-07-28T02:59:40.542Z,78.80
2022-07-28T03:01:48.522Z,78.20
2022-07-28T03:03:57.778Z,78.00
2022-07-28T03:06:05.420Z,78.00
2022-07-28T03:08:13.300Z,77.80
2022-07-28T03:10:34.197Z,77.60
2022-07-28T03:12:42.170Z,77.70
2022-07-28T03:14:49.208Z,76.70
2022-07-28T03:16:56.524Z,76.20
2022-07-28T03:19:05.698Z,74.90
2022-07-28T03:21:13.002Z,74.30
2022-07-28T03:23:20.860Z,74.20
2022-07-28T03:25:33.247Z,74.50
2022-07-28T03:27:44.126Z,74.10
2022-07-28T03:29:59.115Z,73.70
2022-07-28T03:32:09.794Z,73.40
2022-07-28T03:34:19.018Z,73.50
2022-07-28T03:36:32.810Z,73.30
2022-07-28T03:38:44.850Z,72.50
2022-07-28T03:40:53.581Z,72.00
2022-07-28T03:43:05.100Z,72.30
2022-07-28T03:45:13.667Z,72.30
2022-07-28T03:47:25.721Z,72.10
2022-07-28T03:49:34.689Z,72.20
2022-07-28T03:51:41.973Z,72.30
2022-07-28T03:53:49.771Z,72.60
2022-07-28T03:55:57.689Z,72.90
2022-07-28T03:58:04.488Z,72.70
2022-07-28T04:00:13.111Z,72.60
2022-07-28T04:02:20.247Z,72.50
2022-07-28T04:04:27.376Z,72.70
2022-07-28T04:06:36.183Z,71.90
2022-07-28T04:08:43.206Z,72.50
2022-07-28T04:10:50.664Z,72.90
2022-07-28T04:12:59.784Z,72.90
2022-07-28T04:15:07.009Z,73.20
2022-07-28T04:17:16.140Z,73.40
2022-07-28T04:19:22.864Z,73.20
2022-07-28T04:21:30.052Z,73.30
2022-07-28T04:23:38.914Z,72.90
2022-07-28T04:25:46.090Z,72.20
2022-07-28T04:27:53.631Z,72.70
2022-07-28T04:30:00.812Z,72.10
2022-07-28T04:32:08.608Z,72.30
2022-07-28T04:34:16.540Z,72.00
2022-07-28T04:36:24.418Z,71.90
2022-07-28T04:38:31.541Z,71.00
2022-07-28T04:40:40.565Z,70.40
2022-07-28T04:42:47.795Z,69.80
2022-07-28T04:44:55.485Z,69.30
2022-07-28T04:47:02.718Z,68.80
2022-07-28T04:49:13.603Z,68.60
2022-07-28T04:51:20.985Z,68.10
2022-07-28T04:53:29.594Z,68.20
2022-07-28T04:55:36.987Z,67.80
2022-07-28T04:57:47.397Z,67.30
2022-07-28T04:59:56.726Z,66.90
2022-07-28T05:02:03.700Z,67.30
2022-07-28T05:04:11.675Z,67.30
2022-07-28T05:06:19.706Z,66.90
2022-07-28T05:08:27.856Z,66.70
2022-07-28T05:10:35.083Z,67.10
2022-07-28T05:12:42.824Z,67.20
2022-07-28T05:14:51.593Z,67.30
2022-07-28T05:16:59.024Z,67.20
2022-07-28T05:19:06.314Z,66.90
2022-07-28T05:21:14.011Z,66.90
2022-07-28T05:23:22.323Z,67.30
2022-07-28T05:25:29.855Z,67.80
2022-07-28T05:27:37.057Z,68.20
2022-07-28T05:29:47.079Z,68.40
2022-07-28T05:31:57.254Z,68.40
2022-07-28T05:34:04.584Z,68.60
2022-07-28T05:36:14.519Z,68.10
2022-07-28T05:38:22.019Z,68.40
2022-07-28T05:40:29.599Z,68.30
2022-07-28T05:42:38.474Z,67.90
2022-07-28T05:44:45.908Z,68.20
2022-07-28T05:46:52.987Z,68.00
2022-07-28T05:49:01.708Z,67.90
2022-07-28T05:51:09.300Z,67.80
2022-07-28T05:53:16.385Z,67.50
2022-07-28T05:55:24.019Z,67.80
2022-07-28T05:57:31.096Z,67.40
2022-07-28T05:59:38.229Z,67.40
2022-07-28T06:01:45.306Z,67.00
2022-07-28T06:04:10.104Z,66.40
2022-07-28T06:06:23.581Z,65.90
2022-07-28T06:08:30.968Z,64.50
2022-07-28T06:10:51.780Z,64.20
2022-07-28T06:12:59.818Z,64.40
2022-07-28T06:15:07.515Z,64.80
2022-07-28T06:17:16.041Z,63.80
2022-07-28T06:19:23.932Z,64.10
2022-07-28T06:21:33.984Z,63.60
2022-07-28T06:23:41.156Z,63.30
2022-07-28T06:25:48.337Z,62.90
2022-07-28T06:27:57.622Z,61.70
2022-07-28T06:30:04.698Z,58.90
2022-07-28T06:32:12.194Z,60.30
2022-07-28T06:34:19.631Z,61.10
2022-07-28T06:36:32.131Z,60.30
2022-07-28T06:38:39.472Z,59.70
2022-07-28T06:40:47.226Z,59.50
2022-07-28T06:42:54.395Z,60.20
2022-07-28T06:45:01.841Z,60.00
2022-07-28T06:47:08.958Z,60.20
2022-07-28T06:49:16.647Z,61.00
2022-07-28T06:51:24.450Z,60.90
2022-07-28T06:53:34.726Z,60.30
2022-07-28T06:55:42.147Z,59.60
2022-07-28T06:57:58.550Z,59.50
2022-07-28T07:00:07.920Z,58.70
2022-07-28T07:02:15.371Z,59.00
2022-07-28T07:04:24.567Z,59.60
2022-07-28T07:06:31.924Z,59.90
2022-07-28T07:08:41.049Z,60.00
2022-07-28T07:10:48.546Z,59.90
2022-07-28T07:12:55.849Z,60.80
2022-07-28T07:15:03.222Z,60.70
2022-07-28T07:17:10.236Z,60.70
2022-07-28T07:19:17.317Z,60.30
2022-07-28T07:21:24.405Z,60.30
2022-07-28T07:23:33.839Z,59.40
2022-07-28T07:25:43.218Z,59.30
2022-07-28T07:27:50.917Z,58.00
2022-07-28T07:29:57.841Z,58.60
2022-07-28T07:32:10.384Z,58.30
2022-07-28T07:34:18.126Z,58.60
2022-07-28T07:36:25.472Z,58.00
2022-07-28T07:38:32.914Z,58.30
2022-07-28T07:40:41.895Z,58.30
2022-07-28T07:42:49.172Z,58.00
2022-07-28T07:44:56.601Z,58.40
2022-07-28T07:47:04.026Z,58.80
2022-07-28T07:49:11.279Z,58.20
2022-07-28T07:51:18.774Z,58.50
2022-07-28T07:53:25.954Z,58.40
2022-07-28T07:55:36.166Z,58.80
2022-07-28T07:57:47.220Z,58.70
2022-07-28T07:59:54.399Z,58.90
2022-07-28T08:02:01.936Z,58.70
2022-07-28T08:04:09.614Z,57.80
2022-07-28T08:06:17.123Z,58.00
2022-07-28T08:08:38.559Z,58.00
2022-07-28T08:10:52.187Z,56.60
2022-07-28T08:13:01.552Z,56.60
2022-07-28T08:15:10.118Z,56.40
2022-07-28T08:17:19.963Z,56.70
2022-07-28T08:19:29.655Z,57.00
2022-07-28T08:21:37.140Z,56.30
2022-07-28T08:23:44.221Z,55.50
2022-07-28T08:25:51.669Z,55.20
2022-07-28T08:28:00.530Z,55.80
2022-07-28T08:30:09.093Z,56.10
2022-07-28T08:32:16.635Z,56.40
2022-07-28T08:34:31.489Z,56.30
2022-07-28T08:36:40.878Z,55.80
2022-07-28T08:38:48.684Z,56.00
2022-07-28T08:40:58.629Z,56.30
2022-07-28T08:43:17.231Z,56.00
2022-07-28T08:45:25.586Z,55.60
2022-07-28T08:48:07.909Z,55.20
2022-07-28T08:50:05.394Z,54.60
2022-07-28T08:52:15.393Z,54.10
2022-07-28T08:54:26.214Z,53.80
2022-07-28T08:56:34.870Z,53.80
2022-07-28T08:58:44.149Z,54.20
2022-07-28T09:00:52.072Z,53.90
2022-07-28T09:03:00.384Z,53.80
2022-07-28T09:05:08.883Z,54.50
2022-07-28T09:07:16.471Z,54.70
2022-07-28T09:09:24.459Z,54.60
2022-07-28T09:11:32.460Z,54.50
2022-07-28T09:13:39.748Z,54.40
2022-07-28T09:15:49.039Z,54.40
2022-07-28T09:17:56.729Z,54.00
2022-07-28T09:20:10.412Z,54.40
2022-07-28T09:22:18.304Z,55.10
2022-07-28T09:24:41.048Z,54.80
2022-07-28T09:27:04.112Z,54.00
2022-07-28T09:29:11.285Z,53.80
2022-07-28T09:31:20.553Z,54.20
2022-07-28T09:33:42.962Z,54.30
2022-07-28T09:35:53.615Z,54.50
2022-07-28T09:38:03.672Z,54.50
2022-07-28T09:40:16.582Z,53.70
2022-07-28T09:42:24.441Z,54.00
2022-07-28T09:44:32.384Z,54.60
2022-07-28T09:46:41.687Z,54.80
2022-07-28T09:49:00.228Z,54.40
2022-07-28T09:51:16.450Z,55.20
2022-07-28T09:53:28.654Z,55.90
2022-07-28T09:55:37.060Z,56.50
2022-07-28T09:57:46.043Z,57.20
2022-07-28T09:59:55.720Z,57.30
2022-07-28T10:02:05.466Z,57.40
2022-07-28T10:04:14.847Z,57.30
2022-07-28T10:06:30.686Z,57.30
2022-07-28T10:08:45.607Z,57.40
2022-07-28T10:11:05.636Z,57.90
2022-07-28T10:13:12.880Z,57.70
2022-07-28T10:15:34.797Z,58.00
2022-07-28T10:17:44.337Z,58.60
2022-07-28T10:19:53.097Z,58.10
2022-07-28T10:22:02.271Z,58.10
2022-07-28T10:24:12.320Z,58.50
2022-07-28T10:26:20.989Z,58.30
2022-07-28T10:28:29.100Z,58.70
2022-07-28T10:30:42.313Z,58.50
2022-07-28T10:32:51.339Z,58.40
2022-07-28T10:35:06.060Z,58.70
2022-07-28T10:37:17.121Z,59.40
2022-07-28T10:39:27.176Z,59.90
2022-07-28T10:41:42.290Z,60.20
2022-07-28T10:43:51.166Z,60.50
2022-07-28T10:46:07.522Z,60.90
2022-07-28T10:48:18.374Z,61.60
2022-07-28T10:50:26.019Z,62.20
2022-07-28T10:52:52.528Z,62.50
2022-07-28T10:55:10.290Z,62.70
2022-07-28T10:57:18.778Z,62.60
2022-07-28T10:59:44.929Z,62.80
2022-07-28T11:01:52.357Z,63.00
2022-07-28T11:04:01.410Z,62.90
2022-07-28T11:06:29.603Z,63.20
2022-07-28T11:08:37.046Z,63.90
2022-07-28T11:10:49.303Z,63.90
2022-07-28T11:12:58.530Z,64.20
2022-07-28T11:15:26.080Z,64.10
2022-07-28T11:17:34.725Z,64.30
2022-07-28T11:22:34.886Z,64.60
2022-07-28T11:25:20.304Z,64.50
2022-07-28T11:28:03.497Z,64.60
2022-07-28T11:30:11.090Z,65.20
2022-07-28T11:32:18.465Z,65.40
2022-07-28T11:34:27.695Z,65.50
2022-07-28T11:37:15.591Z,65.70
2022-07-28T11:39:31.628Z,65.70
2022-07-28T11:41:51.195Z,65.60
2022-07-28T11:44:00.123Z,65.60
2022-07-28T11:46:40.866Z,65.70
2022-07-28T11:48:48.461Z,66.40
2022-07-28T11:51:13.593Z,66.80
2022-07-28T11:53:21.063Z,67.20
2022-07-28T11:55:55.322Z,67.50
2022-07-28T11:57:58.981Z,68.50
2022-07-28T12:00:08.259Z,69.50
2022-07-28T12:02:20.136Z,70.40
2022-07-28T12:04:31.516Z,71.50
2022-07-28T12:06:40.261Z,71.90
2022-07-28T12:08:57.831Z,72.30
2022-07-28T12:11:06.697Z,72.80
2022-07-28T12:13:14.133Z,72.80
2022-07-28T12:15:21.828Z,72.70
2022-07-28T12:17:36.957Z,72.50
2022-07-28T12:19:48.333Z,72.70
2022-07-28T12:21:57.812Z,72.30
2022-07-28T12:24:04.898Z,72.30
2022-07-28T12:26:14.426Z,74.00
2022-07-28T12:28:23.663Z,74.50
2022-07-28T12:30:33.805Z,73.80
2022-07-28T12:32:42.113Z,74.00
2022-07-28T12:34:50.179Z,74.70
2022-07-28T12:36:58.170Z,75.00
2022-07-28T12:39:09.482Z,75.80
2022-07-28T12:41:22.629Z,76.50
2022-07-28T12:43:33.181Z,76.90
2022-07-28T12:45:49.038Z,76.80
2022-07-28T12:47:56.930Z,76.80
2022-07-28T12:50:15.266Z,76.60
2022-07-28T12:52:23.726Z,77.00
2022-07-28T12:54:40.993Z,77.20
2022-07-28T12:56:54.569Z,77.40
2022-07-28T12:59:10.103Z,77.30
2022-07-28T13:01:17.205Z,76.90
2022-07-28T13:03:25.743Z,76.50
2022-07-28T13:05:55.098Z,77.10
2022-07-28T13:08:03.673Z,77.60
2022-07-28T13:10:14.185Z,77.10
2022-07-28T13:12:24.833Z,76.00
2022-07-28T13:14:44.764Z,75.80
2022-07-28T13:17:01.971Z,75.40
2022-07-28T13:19:11.200Z,74.60
2022-07-28T13:21:18.590Z,74.40
2022-07-28T13:23:26.285Z,74.10
2022-07-28T13:25:33.360Z,73.90
2022-07-28T13:27:42.079Z,74.00
2022-07-28T13:29:49.360Z,74.00
2022-07-28T13:31:58.825Z,73.90
2022-07-28T13:34:06.443Z,74.00
2022-07-28T13:36:13.877Z,74.20
2022-07-28T13:38:25.156Z,74.20
2022-07-28T13:40:32.193Z,74.30
2022-07-28T13:42:41.567Z,74.40
2022-07-28T13:45:00.785Z,74.50
2022-07-28T13:47:09.660Z,74.70
2022-07-28T13:49:17.225Z,75.00
2022-07-28T13:51:27.392Z,75.20
2022-07-28T13:53:34.885Z,75.80
2022-07-28T13:55:42.066Z,75.60
2022-07-28T13:57:51.506Z,75.70
2022-07-28T13:59:58.833Z,75.90
2022-07-28T14:02:06.118Z,75.90
2022-07-28T14:04:23.212Z,75.90
2022-07-28T14:06:30.679Z,76.10
2022-07-28T14:08:38.526Z,76.20
2022-07-28T14:10:49.029Z,76.20
2022-07-28T14:12:58.260Z,76.40
2022-07-28T14:15:06.054Z,76.40
2022-07-28T14:17:40.108Z,76.50
2022-07-28T14:19:40.895Z,76.50
2022-07-28T14:21:51.762Z,76.40
2022-07-28T14:23:59.051Z,76.50
2022-07-28T14:26:33.260Z,76.70
2022-07-28T14:28:35.278Z,76.80
2022-07-28T14:30:42.915Z,76.80
2022-07-28T14:32:50.712Z,77.10
2022-07-28T14:34:58.094Z,77.30
2022-07-28T14:37:09.300Z,77.50
2022-07-28T14:39:17.018Z,77.60
2022-07-28T14:41:24.458Z,77.80
2022-07-28T14:43:31.838Z,78.10
2022-07-28T14:46:00.560Z,78.30
2022-07-28T14:48:08.938Z,78.40
2022-07-28T14:50:16.078Z,78.40
2022-07-28T14:52:23.453Z,78.30
2022-07-28T14:54:31.563Z,78.40
2022-07-28T14:56:39.252Z,78.50
2022-07-28T14:58:46.484Z,78.60
2022-07-28T15:00:55.892Z,78.70
2022-07-28T15:03:03.123Z,78.80
2022-07-28T15:05:11.458Z,78.70
2022-07-28T15:07:18.550Z,78.70
2022-07-28T15:09:25.975Z,79.00
2022-07-28T15:11:33.208Z,79.10
2022-07-28T15:13:40.195Z,79.30
2022-07-28T15:15:47.817Z,79.10
2022-07-28T15:17:57.881Z,78.90
2022-07-28T15:20:07.106Z,78.80
2022-07-28T15:22:14.139Z,78.60
2022-07-28T15:24:23.375Z,78.40
2022-07-28T15:26:30.852Z,78.30
2022-07-28T15:28:38.397Z,78.30
2022-07-28T15:30:52.697Z,78.20
2022-07-28T15:33:02.847Z,78.00
2022-07-28T15:35:10.752Z,78.00
2022-07-28T15:37:18.177Z,77.90
2022-07-28T15:39:25.973Z,77.90
2022-07-28T15:41:38.273Z,77.90
2022-07-28T15:43:46.787Z,78.20
2022-07-28T15:45:54.233Z,78.40
2022-07-28T15:48:04.224Z,78.60
2022-07-28T15:50:11.915Z,78.70
2022-07-28T15:52:20.071Z,79.00
2022-07-28T15:54:27.509Z,79.70
2022-07-28T15:56:36.438Z,80.10
2022-07-28T15:58:43.978Z,80.00
2022-07-28T16:00:51.211Z,80.00
2022-07-28T16:03:00.066Z,79.90
2022-07-28T16:05:09.661Z,80.00
2022-07-28T16:07:24.333Z,80.00
2022-07-28T16:09:45.301Z,80.00
2022-07-28T16:11:54.407Z,80.40
2022-07-28T16:14:01.643Z,80.70
2022-07-28T16:16:11.074Z,81.10
2022-07-28T16:18:19.071Z,81.30
2022-07-28T16:20:28.611Z,81.40
2022-07-28T16:22:38.759Z,81.30
2022-07-28T16:24:46.041Z,81.40
2022-07-28T16:26:53.742Z,81.70
2022-07-28T16:29:00.926Z,82.20
2022-07-28T16:31:08.551Z,82.00
2022-07-28T16:33:15.694Z,82.60
2022-07-28T16:35:23.343Z,83.10
2022-07-28T16:37:32.509Z,83.40
2022-07-28T16:39:40.008Z,83.50
2022-07-28T16:41:48.340Z,83.50
2022-07-28T16:43:57.024Z,83.40
2022-07-28T16:46:05.001Z,83.30
2022-07-28T16:48:12.511Z,83.20
2022-07-28T16:50:20.107Z,82.90
2022-07-28T16:52:28.626Z,82.60
2022-07-28T16:54:38.513Z,82.30
2022-07-28T16:56:46.362Z,82.10
2022-07-28T16:58:53.598Z,82.00
2022-07-28T17:01:00.827Z,82.10
2022-07-28T17:03:11.030Z,81.80
2022-07-28T17:05:18.778Z,81.60
2022-07-28T17:07:26.005Z,81.50
2022-07-28T17:09:33.545Z,81.60
2022-07-28T17:11:43.752Z,81.60
2022-07-28T17:13:51.134Z,81.70
2022-07-28T17:16:00.981Z,81.90
2022-07-28T17:18:08.584Z,82.30
2022-07-28T17:20:17.760Z,82.40
2022-07-28T17:22:25.237Z,82.50
2022-07-28T17:24:32.379Z,82.50
2022-07-28T17:29:08.539Z,83.40
2022-07-28T17:31:15.962Z,83.20
2022-07-28T17:33:23.063Z,82.80
2022-07-28T17:35:34.795Z,82.60
2022-07-28T17:37:42.644Z,82.30
2022-07-28T17:39:49.930Z,82.30
2022-07-28T17:41:59.017Z,82.50
2022-07-28T17:44:06.801Z,82.60
2022-07-28T17:46:14.058Z,82.50
2022-07-28T17:48:22.445Z,82.90
2022-07-28T17:50:30.138Z,83.00
2022-07-28T17:52:37.423Z,82.80
2022-07-28T17:55:00.882Z,82.60
2022-07-28T17:57:11.608Z,82.70
2022-07-28T17:59:18.986Z,83.10
2022-07-28T18:01:26.596Z,83.70
2022-07-28T18:03:56.425Z,83.90
2022-07-28T18:06:01.476Z,84.30
2022-07-28T18:08:09.638Z,84.70
2022-07-28T18:10:17.434Z,85.00
2022-07-28T18:12:33.727Z,85.10
2022-07-28T18:14:41.260Z,85.40
2022-07-28T18:16:48.449Z,85.20
2022-07-28T18:18:55.479Z,84.80
2022-07-28T18:21:02.799Z,84.70
2022-07-28T18:23:10.596Z,85.10
2022-07-28T18:25:17.789Z,85.30
2022-07-28T18:27:24.912Z,85.20
2022-07-28T18:29:38.257Z,85.40
2022-07-28T18:31:46.954Z,85.70
2022-07-28T18:33:54.908Z,85.70
2022-07-28T18:36:02.185Z,85.60
2022-07-28T18:38:09.774Z,85.50
2022-07-28T18:40:18.552Z,85.40
2022-07-28T18:42:26.096Z,85.10
2022-07-28T18:44:35.625Z,85.10
2022-07-28T18:46:43.085Z,85.30
2022-07-28T18:48:53.707Z,85.40
2022-07-28T18:51:04.127Z,85.50
2022-07-28T18:53:11.068Z,85.70
2022-07-28T18:55:21.821Z,85.80
2022-07-28T18:57:29.105Z,86.20
2022-07-28T18:59:43.249Z,86.70
2022-07-28T19:01:51.842Z,86.90
2022-07-28T19:03:59.160Z,86.90
2022-07-28T19:06:06.444Z,86.70
2022-07-28T19:08:13.971Z,87.00
2022-07-28T19:10:21.114Z,87.40
2022-07-28T19:12:32.230Z,87.40
2022-07-28T19:14:41.924Z,87.70
2022-07-28T19:16:49.262Z,87.90
2022-07-28T19:18:56.231Z,88.10
2022-07-28T19:21:03.615Z,88.60
2022-07-28T19:23:10.656Z,88.70
2022-07-28T19:25:17.876Z,89.10
2022-07-28T19:27:26.249Z,89.50
2022-07-28T19:29:37.361Z,89.70
2022-07-28T19:31:46.638Z,90.80
2022-07-28T19:33:53.872Z,89.80
2022-07-28T19:36:01.326Z,89.40
2022-07-28T19:38:08.493Z,89.30
2022-07-28T19:40:15.785Z,89.30
2022-07-28T19:42:22.907Z,89.40
2022-07-28T19:44:32.252Z,89.50
2022-07-28T19:46:39.819Z,89.50
2022-07-28T19:48:49.001Z,89.60
2022-07-28T19:50:57.519Z,89.60
2022-07-28T19:53:05.271Z,89.70
2022-07-28T19:55:13.120Z,89.60
2022-07-28T19:57:24.808Z,89.70
2022-07-28T19:59:31.931Z,90.10
2022-07-28T20:01:45.991Z,90.40
2022-07-28T20:04:01.515Z,90.60
2022-07-28T20:06:12.010Z,90.60
2022-07-28T20:08:19.599Z,90.70
2022-07-28T20:10:26.846Z,90.80
2022-07-28T20:12:36.650Z,90.80
2022-07-28T20:14:44.427Z,91.00
2022-07-28T20:16:51.820Z,91.10
2022-07-28T20:19:01.203Z,91.00
2022-07-28T20:21:08.526Z,91.10
2022-07-28T20:23:15.716Z,91.10
2022-07-28T20:25:23.052Z,91.10
2022-07-28T20:27:30.173Z,91.00
2022-07-28T20:29:37.711Z,90.90
2022-07-28T20:31:44.854Z,90.60
2022-07-28T20:33:52.232Z,90.70
2022-07-28T20:36:01.256Z,90.50
2022-07-28T20:38:09.360Z,90.90
2022-07-28T20:40:16.645Z,91.20
2022-07-28T20:42:24.079Z,91.20
2022-07-28T20:44:31.128Z,91.20
2022-07-28T20:46:38.710Z,91.30
2022-07-28T20:48:45.756Z,91.20
2022-07-28T20:53:21.099Z,91.20
2022-07-28T20:55:29.288Z,91.10
2022-07-28T20:57:36.519Z,91.10
2022-07-28T20:59:44.726Z,91.10
2022-07-28T21:01:52.004Z,91.20
2022-07-28T21:03:59.142Z,91.10
2022-07-28T21:06:06.782Z,91.10
2022-07-28T21:08:16.311Z,91.20
2022-07-28T21:10:26.367Z,91.30
2022-07-28T21:12:33.498Z,91.80
2022-07-28T21:14:41.096Z,91.90
2022-07-28T21:16:48.060Z,92.00
2022-07-28T21:18:55.309Z,92.10
2022-07-28T21:21:02.582Z,92.30
2022-07-28T21:23:10.074Z,92.20
2022-07-28T21:25:17.252Z,92.20
2022-07-28T21:27:26.492Z,92.40
2022-07-28T21:29:32.700Z,92.20
2022-07-28T21:32:05.213Z,92.10
2022-07-28T21:34:07.433Z,92.10
2022-07-28T21:36:15.279Z,92.10
2022-07-28T21:38:22.934Z,92.10
2022-07-28T21:40:30.413Z,92.30
2022-07-28T21:42:39.383Z,92.30
2022-07-28T21:44:46.780Z,92.30
2022-07-28T21:46:53.911Z,92.40
2022-07-28T21:49:03.011Z,92.50
2022-07-28T21:51:18.258Z,92.30
2022-07-28T21:53:26.559Z,92.40
2022-07-28T21:55:33.903Z,92.30
2022-07-28T21:57:42.973Z,92.20
2022-07-28T21:59:50.362Z,92.00
2022-07-28T22:01:57.489Z,92.00
2022-07-28T22:04:04.724Z,92.00
2022-07-28T22:06:12.001Z,91.90
2022-07-28T22:08:19.087Z,91.90
2022-07-28T22:10:27.654Z,91.90
2022-07-28T22:12:34.894Z,91.90
2022-07-28T22:14:44.007Z,92.00
2022-07-28T22:16:51.637Z,92.30
2022-07-28T22:18:58.983Z,92.50
2022-07-28T22:21:06.318Z,92.80
2022-07-28T22:23:29.009Z,93.10
2022-07-28T22:25:37.634Z,93.50
2022-07-28T22:27:44.915Z,93.40
2022-07-28T22:29:54.192Z,93.50
2022-07-28T22:32:01.388Z,93.50
2022-07-28T22:34:08.919Z,93.30
2022-07-28T22:36:16.095Z,93.10
2022-07-28T22:38:23.482Z,93.00
2022-07-28T22:40:30.460Z,92.90
2022-07-28T22:42:37.695Z,92.80
2022-07-28T22:44:45.077Z,92.80
2022-07-28T22:46:53.898Z,92.80
2022-07-28T22:49:01.450Z,92.90
2022-07-28T22:51:13.751Z,92.90
2022-07-28T22:53:21.077Z,92.90
2022-07-28T22:55:28.419Z,92.90
2022-07-28T22:57:35.696Z,92.90
2022-07-28T22:59:43.246Z,93.00
2022-07-28T23:02:00.146Z,93.00
2022-07-28T23:04:07.677Z,93.10
2022-07-28T23:06:15.237Z,93.10
2022-07-28T23:08:22.315Z,93.10
2022-07-28T23:10:30.012Z,93.20
2022-07-28T23:12:37.029Z,93.30
2022-07-28T23:14:44.412Z,93.40
2022-07-28T23:16:51.388Z,93.30
2022-07-28T23:19:00.479Z,93.30
2022-07-28T23:21:08.515Z,93.40
2022-07-28T23:23:19.492Z,93.30
2022-07-28T23:25:26.934Z,93.20
2022-07-28T23:27:34.220Z,93.20
2022-07-28T23:29:41.402Z,93.10
2022-07-28T23:31:48.848Z,93.00
2022-07-28T23:33:57.654Z,92.90
2022-07-28T23:36:16.849Z,92.80
2022-07-28T23:38:34.512Z,92.70
2022-07-28T23:40:41.682Z,92.40
2022-07-28T23:42:48.653Z,92.10
2022-07-28T23:44:55.879Z,91.70
2022-07-28T23:47:02.992Z,91.50
2022-07-28T23:49:10.345Z,91.30
2022-07-28T23:51:19.321Z,91.10
2022-07-28T23:53:26.552Z,91.00
2022-07-28T23:55:33.631Z,90.90
2022-07-28T23:57:41.019Z,90.80
2022-07-28T23:59:48.096Z,90.50
